Time;durP1;ratioP1;P1;durP2;ratioP2;P2;SDS_P1;SDS_P2;PMS_P1;PMS_P2;Temp;Humidity;BMP_temperature;BMP_pressure;BME280_temperature;BME280_humidity;BME280_pressure;Samples;Min_cycle;Max_cycle;Signal;HPM_P1;HPM_P2
2022/01/31 00:03:39;;;;;;;3.47;1.40;;;;;;;;;;10302653;28;20495;-74
2022/01/31 00:08:42;;;;;;;8.83;2.43;;;;;;;;;;10316429;28;20035;-74
2022/01/31 00:13:57;;;;;;;6.43;1.48;;;;;;;;;;10316156;28;20065;-75
2022/01/31 00:19:00;;;;;;;3.85;1.92;;;;;;;;;;10315387;28;20372;-74
2022/01/31 00:24:03;;;;;;;5.40;2.20;;;;;;;;;;10316671;28;20042;-74
2022/01/31 00:29:07;;;;;;;11.93;1.60;;;;;;;;;;10315562;28;20042;-75
2022/01/31 00:34:10;;;;;;;1.20;0.80;;;;;;;;;;10315358;28;20100;-73
2022/01/31 00:39:14;;;;;;;7.10;2.40;;;;;;;;;;10313855;28;20041;-73
2022/01/31 00:44:26;;;;;;;1.83;0.70;;;;;;;;;;10316388;28;20087;-74
2022/01/31 00:49:37;;;;;;;9.93;1.57;;;;;;;;;;10313376;28;20247;-75
2022/01/31 00:54:40;;;;;;;5.70;1.70;;;;;;;;;;10314588;28;20039;-77
2022/01/31 00:59:44;;;;;;;4.90;1.83;;;;;;;;;;10315067;28;20030;-73
2022/01/31 01:04:47;;;;;;;3.97;1.20;;;;;;;;;;10323972;28;20026;-75
2022/01/31 01:09:51;;;;;;;5.53;1.98;;;;;;;;;;10316080;28;20045;-78
2022/01/31 01:14:57;;;;;;;6.40;2.50;;;;;;;;;;10315554;28;20050;-74
2022/01/31 01:20:00;;;;;;;3.53;1.00;;;;;;;;;;10313671;28;20837;-75
2022/01/31 01:25:06;;;;;;;3.43;1.30;;;;;;;;;;10314473;28;20056;-76
2022/01/31 01:30:13;;;;;;;1.87;1.00;;;;;;;;;;10313460;28;20038;-76
2022/01/31 01:35:16;;;;;;;7.13;2.13;;;;;;;;;;10313587;28;20667;-74
2022/01/31 01:40:19;;;;;;;3.83;1.13;;;;;;;;;;10313644;28;20070;-74
2022/01/31 01:45:25;;;;;;;2.17;1.10;;;;;;;;;;10314387;28;20074;-74
2022/01/31 01:50:28;;;;;;;3.03;1.83;;;;;;;;;;10312906;28;20027;-74
2022/01/31 01:55:31;;;;;;;2.47;0.80;;;;;;;;;;10313793;28;20057;-74
2022/01/31 02:00:49;;;;;;;5.33;1.70;;;;;;;;;;10302686;28;20311;-73
2022/01/31 02:05:53;;;;;;;10.43;1.57;;;;;;;;;;10321564;28;20052;-75
2022/01/31 02:10:56;;;;;;;1.23;0.60;;;;;;;;;;10320905;28;20044;-74
2022/01/31 02:16:01;;;;;;;11.53;2.47;;;;;;;;;;10318914;28;20038;-74
2022/01/31 02:21:07;;;;;;;5.30;1.40;;;;;;;;;;10321251;28;20113;-73
2022/01/31 02:26:10;;;;;;;1.10;0.37;;;;;;;;;;10319155;28;20506;-74
2022/01/31 02:31:13;;;;;;;4.60;1.13;;;;;;;;;;10316325;28;20402;-74
2022/01/31 02:36:19;;;;;;;7.50;1.77;;;;;;;;;;10320498;28;20045;-73
2022/01/31 02:41:22;;;;;;;10.10;2.17;;;;;;;;;;10319884;28;20042;-75
2022/01/31 02:46:27;;;;;;;9.07;2.10;;;;;;;;;;10319822;28;20038;-74
2022/01/31 02:51:32;;;;;;;8.00;2.17;;;;;;;;;;10318588;28;20027;-74
2022/01/31 02:56:36;;;;;;;2.03;0.67;;;;;;;;;;10326789;28;20569;-74
2022/01/31 03:01:39;;;;;;;2.25;1.35;;;;;;;;;;10319175;28;20041;-74
2022/01/31 03:06:49;;;;;;;8.75;1.75;;;;;;;;;;10312517;28;20045;-73
2022/01/31 03:11:52;;;;;;;3.80;1.40;;;;;;;;;;10319893;28;20038;-73
2022/01/31 03:16:56;;;;;;;11.00;1.87;;;;;;;;;;10314824;28;20133;-74
2022/01/31 03:22:00;;;;;;;7.07;1.67;;;;;;;;;;10317753;28;20038;-73
2022/01/31 03:27:03;;;;;;;;;;;;;;;;;;10319401;28;20183;-75
2022/01/31 03:32:06;;;;;;;2.97;1.40;;;;;;;;;;10317481;28;19972;-73
2022/01/31 03:37:10;;;;;;;;;;;;;;;;;;10318419;28;20128;-74
2022/01/31 03:42:18;;;;;;;3.57;1.73;;;;;;;;;;10317742;28;20402;-75
2022/01/31 03:47:21;;;;;;;6.07;2.03;;;;;;;;;;10313984;28;20454;-75
2022/01/31 03:52:25;;;;;;;1.27;1.02;;;;;;;;;;10317347;28;20138;-75
2022/01/31 03:57:31;;;;;;;6.83;1.53;;;;;;;;;;10316277;28;20035;-74
2022/01/31 04:02:34;;;;;;;3.60;1.20;;;;;;;;;;10316459;28;20046;-75
2022/01/31 04:07:39;;;;;;;2.28;1.45;;;;;;;;;;10316908;28;20031;-74
2022/01/31 04:12:44;;;;;;;6.77;1.57;;;;;;;;;;10316787;28;20065;-74
2022/01/31 04:17:47;;;;;;;6.20;2.20;;;;;;;;;;10310370;28;20133;-73
2022/01/31 04:22:55;;;;;;;2.10;1.17;;;;;;;;;;10319145;28;20464;-72
2022/01/31 04:28:04;;;;;;;6.43;1.73;;;;;;;;;;10312665;28;20466;-74
2022/01/31 04:33:07;;;;;;;7.30;1.40;;;;;;;;;;10314907;28;20238;-77
2022/01/31 04:38:10;;;;;;;6.50;1.93;;;;;;;;;;10317893;28;20129;-75
2022/01/31 04:43:15;;;;;;;2.97;0.93;;;;;;;;;;10315546;28;20141;-75
2022/01/31 04:48:20;;;;;;;3.17;1.40;;;;;;;;;;10315786;28;20105;-74
2022/01/31 04:53:23;;;;;;;10.25;2.85;;;;;;;;;;10318551;28;20089;-76
2022/01/31 04:58:28;;;;;;;6.27;1.73;;;;;;;;;;10315731;28;20039;-75
2022/01/31 05:03:31;;;;;;;1.73;0.80;;;;;;;;;;10316186;28;20120;-74
2022/01/31 05:08:35;;;;;;;5.07;1.87;;;;;;;;;;10312461;28;20065;-75
2022/01/31 05:13:40;;;;;;;4.20;1.40;;;;;;;;;;10316249;28;20139;-74
2022/01/31 05:18:44;;;;;;;1.00;0.80;;;;;;;;;;10308541;28;20128;-74
2022/01/31 05:23:49;;;;;;;0.67;0.57;;;;;;;;;;10316547;28;20038;-76
2022/01/31 05:28:51;;;;;;;;;;;;;;;;;;10314800;28;20034;-76
2022/01/31 05:33:56;;;;;;;3.67;1.93;;;;;;;;;;10314040;28;19937;-73
2022/01/31 05:38:59;;;;;;;3.27;1.10;;;;;;;;;;10313994;28;20507;-75
2022/01/31 05:44:02;;;;;;;6.77;1.10;;;;;;;;;;10316010;28;20080;-75
2022/01/31 05:49:06;;;;;;;2.53;1.33;;;;;;;;;;10316153;28;20046;-75
2022/01/31 05:54:10;;;;;;;4.10;1.13;;;;;;;;;;10316510;28;20054;-74
2022/01/31 05:59:13;;;;;;;11.23;4.10;;;;;;;;;;10304016;28;20043;-74
2022/01/31 06:04:17;;;;;;;10.67;2.83;;;;;;;;;;10315478;28;20047;-75
2022/01/31 06:09:20;;;;;;;;;;;;;;;;;;10316731;28;20034;-76
2022/01/31 06:14:23;;;;;;;8.63;2.67;;;;;;;;;;10316486;28;20158;-74
2022/01/31 06:19:29;;;;;;;3.92;1.83;;;;;;;;;;10316158;28;20057;-74
2022/01/31 06:24:32;;;;;;;9.13;3.00;;;;;;;;;;10308184;28;20287;-74
2022/01/31 06:29:35;;;;;;;15.87;3.93;;;;;;;;;;10318596;28;20049;-75
2022/01/31 06:34:39;;;;;;;2.33;1.23;;;;;;;;;;10327359;28;20116;-75
2022/01/31 06:39:42;;;;;;;;;;;;;;;;;;10329438;28;20498;-76
2022/01/31 06:44:45;;;;;;;8.37;2.60;;;;;;;;;;10323889;28;20198;-75
2022/01/31 06:49:49;;;;;;;7.13;1.47;;;;;;;;;;10317877;28;20046;-76
2022/01/31 06:54:54;;;;;;;3.10;1.30;;;;;;;;;;10321818;28;20038;-75
2022/01/31 06:59:57;;;;;;;3.77;1.50;;;;;;;;;;10324892;28;20193;-77
2022/01/31 07:05:01;;;;;;;6.77;2.80;;;;;;;;;;10322266;28;20162;-76
2022/01/31 07:10:05;;;;;;;5.73;1.60;;;;;;;;;;10319176;28;20042;-75
2022/01/31 07:15:09;;;;;;;2.33;0.93;;;;;;;;;;10320075;28;20152;-76
2022/01/31 07:20:23;;;;;;;6.40;1.73;;;;;;;;;;10318265;28;20482;-75
2022/01/31 07:25:35;;;;;;;7.53;2.50;;;;;;;;;;10305033;28;20130;-75
2022/01/31 07:30:39;;;;;;;6.13;2.07;;;;;;;;;;10319326;28;20180;-76
2022/01/31 07:35:44;;;;;;;5.95;2.10;;;;;;;;;;10319154;28;20042;-76
2022/01/31 07:40:47;;;;;;;4.03;1.73;;;;;;;;;;10314562;28;20045;-73
2022/01/31 07:45:50;;;;;;;6.03;1.70;;;;;;;;;;10310185;28;20038;-73
2022/01/31 07:50:54;;;;;;;4.20;2.00;;;;;;;;;;10316406;28;20058;-75
2022/01/31 07:55:59;;;;;;;;;;;;;;;;;;10316670;28;20462;-74
2022/01/31 08:01:03;;;;;;;8.27;2.73;;;;;;;;;;10316092;28;20024;-75
2022/01/31 08:06:08;;;;;;;6.47;1.77;;;;;;;;;;10316286;28;20041;-75
2022/01/31 08:11:14;;;;;;;0.30;0.30;;;;;;;;;;10311083;28;20522;-75
2022/01/31 08:16:16;;;;;;;2.33;1.13;;;;;;;;;;10313088;28;20042;-75
2022/01/31 08:21:23;;;;;;;5.20;1.97;;;;;;;;;;10315414;28;20073;-74
2022/01/31 08:26:27;;;;;;;5.43;1.77;;;;;;;;;;10314409;28;20042;-74
2022/01/31 08:31:33;;;;;;;12.63;3.27;;;;;;;;;;10315322;28;20481;-76
2022/01/31 08:36:38;;;;;;;4.97;2.13;;;;;;;;;;10314708;28;20054;-73
2022/01/31 08:41:42;;;;;;;;;;;;;;;;;;10314889;28;20053;-74
2022/01/31 08:46:45;;;;;;;10.03;3.13;;;;;;;;;;10313956;28;19992;-74
2022/01/31 08:51:50;;;;;;;7.47;3.13;;;;;;;;;;10313854;28;20298;-75
2022/01/31 08:56:53;;;;;;;6.67;3.10;;;;;;;;;;10311848;28;20097;-74
2022/01/31 09:02:05;;;;;;;3.57;2.20;;;;;;;;;;10314121;28;20043;-75
2022/01/31 09:07:10;;;;;;;4.20;2.03;;;;;;;;;;10303912;28;20046;-74
2022/01/31 09:12:16;;;;;;;;;;;;;;;;;;10312615;28;20064;-75
2022/01/31 09:17:19;;;;;;;6.57;2.80;;;;;;;;;;10312728;28;20465;-76
2022/01/31 09:22:23;;;;;;;5.40;3.13;;;;;;;;;;10312341;28;20061;-75
2022/01/31 09:27:26;;;;;;;3.90;1.65;;;;;;;;;;10313725;28;20102;-74
2022/01/31 09:32:30;;;;;;;3.35;1.77;;;;;;;;;;10313342;28;20042;-75
2022/01/31 09:37:34;;;;;;;11.13;2.20;;;;;;;;;;10311096;28;20085;-75
2022/01/31 09:42:42;;;;;;;7.47;2.63;;;;;;;;;;10306930;28;20035;-76
2022/01/31 09:53:08;;;;;;;3.00;1.33;;;;;;;;;;10309771;28;20049;-75
2022/01/31 09:58:10;;;;;;;;;;;;;;;;;;10306105;28;20214;-76
2022/01/31 10:03:13;;;;;;;4.23;2.40;;;;;;;;;;10310132;28;19929;-75
2022/01/31 10:08:17;;;;;;;4.20;2.37;;;;;;;;;;10305826;28;20077;-74
2022/01/31 10:18:58;;;;;;;1.23;0.90;;;;;;;;;;10314222;28;20158;-75
2022/01/31 10:24:15;;;;;;;2.90;1.50;;;;;;;;;;10319307;28;20035;-74
2022/01/31 10:29:20;;;;;;;4.70;1.90;;;;;;;;;;10310721;28;20042;-76
2022/01/31 10:34:24;;;;;;;6.17;2.00;;;;;;;;;;10317980;28;20148;-75
2022/01/31 10:45:45;;;;;;;2.77;1.70;;;;;;;;;;10320760;28;20068;-74
2022/01/31 10:56:17;;;;;;;2.60;1.10;;;;;;;;;;10499987;27;20614;-75
2022/01/31 11:01:20;;;;;;;1.43;1.20;;;;;;;;;;10451133;28;20521;-76
2022/01/31 11:06:24;;;;;;;1.37;1.03;;;;;;;;;;10460413;28;20544;-76
2022/01/31 11:11:28;;;;;;;0.77;0.53;;;;;;;;;;10454669;28;20517;-74
2022/01/31 11:16:31;;;;;;;;;;;;;;;;;;10453926;28;20302;-73
2022/01/31 11:21:34;;;;;;;2.10;1.03;;;;;;;;;;10452897;28;19990;-75
2022/01/31 11:26:40;;;;;;;1.40;0.65;;;;;;;;;;10452195;28;20040;-75
2022/01/31 11:31:44;;;;;;;0.98;0.90;;;;;;;;;;10446753;28;20073;-75
2022/01/31 11:36:47;;;;;;;;;;;;;;;;;;10450085;28;20044;-74
2022/01/31 11:41:55;;;;;;;0.90;0.70;;;;;;;;;;10444564;28;19928;-75
2022/01/31 11:47:03;;;;;;;1.67;0.93;;;;;;;;;;10444233;28;20389;-75
2022/01/31 11:52:07;;;;;;;0.47;0.40;;;;;;;;;;10447228;28;20051;-75
2022/01/31 11:57:16;;;;;;;2.85;0.98;;;;;;;;;;10438892;28;20040;-76
2022/01/31 12:02:20;;;;;;;1.58;0.70;;;;;;;;;;10446486;28;20528;-75
2022/01/31 12:07:30;;;;;;;1.40;0.47;;;;;;;;;;10422703;28;20041;-75
2022/01/31 12:12:44;;;;;;;1.02;0.60;;;;;;;;;;10420382;28;20479;-75
2022/01/31 12:18:03;;;;;;;0.77;0.40;;;;;;;;;;10417009;28;20605;-74
2022/01/31 12:23:21;;;;;;;0.93;0.50;;;;;;;;;;10423403;28;20036;-75
2022/01/31 12:28:39;;;;;;;1.07;0.60;;;;;;;;;;10420408;28;20041;-75
2022/01/31 12:33:43;;;;;;;1.15;0.47;;;;;;;;;;10423993;28;20511;-74
2022/01/31 12:38:46;;;;;;;0.67;0.60;;;;;;;;;;10417756;28;20504;-74
2022/01/31 12:43:51;;;;;;;1.73;0.70;;;;;;;;;;10418085;28;20030;-74
2022/01/31 12:49:10;;;;;;;0.43;0.43;;;;;;;;;;10415224;28;20072;-75
2022/01/31 12:54:21;;;;;;;1.83;1.10;;;;;;;;;;10413759;28;20080;-73
2022/01/31 12:59:24;;;;;;;1.53;0.57;;;;;;;;;;10415247;28;20045;-74
2022/01/31 13:04:28;;;;;;;2.60;1.07;;;;;;;;;;10424308;28;20037;-75
2022/01/31 13:09:32;;;;;;;0.93;0.50;;;;;;;;;;10421525;28;20151;-74
2022/01/31 13:14:36;;;;;;;2.65;0.70;;;;;;;;;;10428564;28;20049;-74
2022/01/31 13:19:47;;;;;;;1.02;0.73;;;;;;;;;;10433297;28;20080;-75
2022/01/31 13:24:50;;;;;;;0.30;0.30;;;;;;;;;;10421067;28;20049;-75
2022/01/31 13:29:53;;;;;;;2.87;0.70;;;;;;;;;;10424830;28;20052;-75
2022/01/31 13:34:58;;;;;;;4.18;0.50;;;;;;;;;;10421722;28;20448;-75
2022/01/31 13:40:04;;;;;;;1.13;0.87;;;;;;;;;;10417085;22;20149;-68
2022/01/31 13:45:12;;;;;;;1.92;0.63;;;;;;;;;;10391969;28;20056;-67
2022/01/31 13:50:22;;;;;;;1.87;0.90;;;;;;;;;;10368961;28;20132;-69
2022/01/31 13:55:25;;;;;;;0.63;0.30;;;;;;;;;;10342848;28;20137;-70
2022/01/31 14:00:28;;;;;;;2.13;0.90;;;;;;;;;;10348707;28;20141;-70
2022/01/31 14:05:35;;;;;;;2.37;0.93;;;;;;;;;;10349381;28;20064;-65
2022/01/31 14:10:38;;;;;;;1.67;1.10;;;;;;;;;;10349040;28;20050;-69
2022/01/31 14:15:43;;;;;;;0.67;0.47;;;;;;;;;;10351121;28;20046;-70
2022/01/31 14:20:55;;;;;;;3.13;1.07;;;;;;;;;;10366062;28;20088;-70
2022/01/31 14:25:58;;;;;;;1.70;0.60;;;;;;;;;;10346627;28;20124;-67
2022/01/31 14:31:00;;;;;;;2.33;0.97;;;;;;;;;;10350634;28;20054;-68
2022/01/31 14:36:06;;;;;;;1.97;1.10;;;;;;;;;;10340947;28;20059;-67
2022/01/31 14:41:23;;;;;;;1.33;0.60;;;;;;;;;;10352585;28;20058;-68
2022/01/31 14:51:49;;;;;;;0.40;0.40;;;;;;;;;;10350863;28;22301;-67
2022/01/31 14:56:51;;;;;;;2.67;0.80;;;;;;;;;;10343150;28;20050;-69
2022/01/31 15:01:59;;;;;;;4.80;1.00;;;;;;;;;;10344312;28;20058;-69
2022/01/31 15:07:23;;;;;;;10.47;1.03;;;;;;;;;;10359476;28;20546;-69
2022/01/31 15:12:25;;;;;;;;;;;;;;;;;;10347388;28;20507;-69
2022/01/31 15:17:30;;;;;;;2.30;0.90;;;;;;;;;;10348336;28;20335;-69
2022/01/31 15:22:34;;;;;;;1.87;0.70;;;;;;;;;;10344931;28;20367;-68
2022/01/31 15:27:37;;;;;;;;;;;;;;;;;;10344884;28;20141;-68
2022/01/31 15:32:39;;;;;;;1.47;0.93;;;;;;;;;;10348591;28;19928;-69
2022/01/31 15:37:46;;;;;;;4.40;0.80;;;;;;;;;;10346940;28;20121;-68
2022/01/31 15:42:54;;;;;;;1.83;0.90;;;;;;;;;;10354385;28;20168;-69
2022/01/31 15:47:57;;;;;;;2.37;1.00;;;;;;;;;;10355311;28;20469;-67
2022/01/31 15:53:07;;;;;;;2.13;0.97;;;;;;;;;;10355628;28;20056;-68
2022/01/31 15:58:12;;;;;;;3.27;1.03;;;;;;;;;;10354552;28;20128;-68
2022/01/31 16:03:15;;;;;;;1.93;1.03;;;;;;;;;;10351673;28;20147;-70
2022/01/31 16:08:20;;;;;;;2.37;0.80;;;;;;;;;;10372250;28;20100;-68
2022/01/31 16:13:23;;;;;;;1.03;0.77;;;;;;;;;;10346605;28;20316;-69
2022/01/31 16:18:26;;;;;;;2.47;0.87;;;;;;;;;;10349168;28;20038;-69
2022/01/31 16:23:30;;;;;;;0.57;0.43;;;;;;;;;;10349311;28;20103;-67
2022/01/31 16:28:33;;;;;;;2.27;1.00;;;;;;;;;;10347617;28;20085;-68
2022/01/31 16:33:56;;;;;;;2.47;1.20;;;;;;;;;;10352356;28;20042;-68
2022/01/31 16:39:00;;;;;;;3.93;1.20;;;;;;;;;;10350632;28;20040;-69
2022/01/31 16:44:03;;;;;;;1.20;1.00;;;;;;;;;;10369250;28;20045;-68
2022/01/31 16:49:07;;;;;;;;;;;;;;;;;;10386262;28;20064;-71
2022/01/31 16:54:11;;;;;;;5.30;1.40;;;;;;;;;;10389199;28;19921;-69
2022/01/31 16:59:15;;;;;;;4.82;1.38;;;;;;;;;;10342807;28;20491;-68
2022/01/31 17:04:18;;;;;;;2.27;0.90;;;;;;;;;;10347809;28;20053;-75
2022/01/31 17:09:23;;;;;;;0.80;0.50;;;;;;;;;;10353050;28;20380;-66
2022/01/31 17:14:25;;;;;;;1.87;1.10;;;;;;;;;;10352255;28;20034;-70
2022/01/31 17:19:29;;;;;;;2.00;0.90;;;;;;;;;;10343065;28;20046;-70
2022/01/31 17:24:33;;;;;;;6.03;1.70;;;;;;;;;;10346609;28;20049;-70
2022/01/31 17:29:36;;;;;;;;;;;;;;;;;;10377952;28;20042;-69
2022/01/31 17:34:39;;;;;;;3.73;1.30;;;;;;;;;;10376616;28;19952;-69
2022/01/31 17:39:44;;;;;;;1.97;1.07;;;;;;;;;;10376235;28;20042;-69
2022/01/31 17:44:51;;;;;;;3.13;1.40;;;;;;;;;;10376604;28;20556;-70
2022/01/31 17:49:54;;;;;;;2.03;1.13;;;;;;;;;;10377306;28;20128;-69
2022/01/31 17:54:58;;;;;;;5.03;1.83;;;;;;;;;;10361967;28;20037;-69
2022/01/31 18:00:08;;;;;;;1.30;1.10;;;;;;;;;;10356012;28;20452;-70
2022/01/31 18:05:11;;;;;;;5.40;1.52;;;;;;;;;;10369273;28;20041;-68
2022/01/31 18:10:15;;;;;;;2.97;1.30;;;;;;;;;;10359598;28;20529;-70
2022/01/31 18:15:19;;;;;;;1.90;1.30;;;;;;;;;;10347433;28;20168;-70
2022/01/31 18:20:22;;;;;;;12.30;1.97;;;;;;;;;;10343418;28;20049;-70
2022/01/31 18:25:27;;;;;;;2.03;1.40;;;;;;;;;;10347224;28;20399;-71
2022/01/31 18:30:37;;;;;;;2.73;1.50;;;;;;;;;;10349196;28;20060;-70
2022/01/31 18:35:40;;;;;;;2.70;1.07;;;;;;;;;;10341319;28;20038;-69
2022/01/31 18:40:45;;;;;;;4.68;1.65;;;;;;;;;;10353775;28;20509;-70
2022/01/31 18:45:49;;;;;;;;;;;;;;;;;;10362224;28;20042;-71
2022/01/31 18:50:54;;;;;;;0.50;0.45;;;;;;;;;;10351599;28;19936;-68
2022/01/31 18:55:59;;;;;;;0.47;0.47;;;;;;;;;;10351867;28;20408;-69
2022/01/31 19:01:05;;;;;;;2.53;1.10;;;;;;;;;;10344260;28;20611;-69
2022/01/31 19:06:12;;;;;;;3.97;1.57;;;;;;;;;;10343967;28;20042;-69
2022/01/31 19:11:20;;;;;;;2.15;1.00;;;;;;;;;;10362323;28;20130;-69
2022/01/31 19:16:26;;;;;;;7.00;2.77;;;;;;;;;;10346995;28;20049;-67
2022/01/31 19:21:30;;;;;;;2.93;1.50;;;;;;;;;;10373047;28;20049;-68
2022/01/31 19:26:35;;;;;;;1.50;0.83;;;;;;;;;;10346440;28;20130;-69
2022/01/31 19:31:38;;;;;;;2.53;1.10;;;;;;;;;;10346119;28;20104;-69
2022/01/31 19:36:42;;;;;;;2.40;0.90;;;;;;;;;;10354771;28;20673;-69
2022/01/31 19:47:08;;;;;;;2.40;1.57;;;;;;;;;;10365214;28;21012;-69
2022/01/31 19:52:13;;;;;;;1.43;1.07;;;;;;;;;;10363013;28;20101;-70
2022/01/31 19:57:18;;;;;;;1.40;1.10;;;;;;;;;;10354204;28;20089;-69
2022/01/31 20:02:21;;;;;;;;;;;;;;;;;;10359357;28;20042;-70
2022/01/31 20:07:25;;;;;;;3.27;1.90;;;;;;;;;;10365187;28;19922;-71
2022/01/31 20:12:29;;;;;;;3.65;1.60;;;;;;;;;;10365693;28;20167;-69
2022/01/31 20:17:32;;;;;;;5.37;1.37;;;;;;;;;;10367196;28;20034;-69
2022/01/31 20:22:35;;;;;;;0.80;0.60;;;;;;;;;;10355119;28;20042;-70
2022/01/31 20:27:40;;;;;;;5.15;1.52;;;;;;;;;;10373734;28;20038;-69
2022/01/31 20:32:43;;;;;;;;;;;;;;;;;;10363622;28;20189;-68
2022/01/31 20:37:51;;;;;;;3.83;1.53;;;;;;;;;;10367834;28;20378;-71
2022/01/31 20:42:55;;;;;;;4.07;1.70;;;;;;;;;;10406874;28;20029;-72
2022/01/31 20:47:58;;;;;;;;;;;;;;;;;;10372787;28;20038;-67
2022/01/31 20:53:02;;;;;;;3.40;1.87;;;;;;;;;;10355625;28;19992;-70
2022/01/31 20:58:06;;;;;;;4.47;2.00;;;;;;;;;;10339139;28;20041;-70
2022/01/31 21:03:10;;;;;;;3.50;1.43;;;;;;;;;;10370719;28;20367;-69
2022/01/31 21:08:13;;;;;;;1.53;1.10;;;;;;;;;;10345644;28;20038;-67
2022/01/31 21:13:17;;;;;;;1.97;1.30;;;;;;;;;;10346991;28;20030;-69
2022/01/31 21:18:20;;;;;;;;;;;;;;;;;;10343781;28;20034;-68
2022/01/31 21:23:23;;;;;;;2.27;1.27;;;;;;;;;;10347888;28;19944;-70
2022/01/31 21:28:28;;;;;;;4.22;2.10;;;;;;;;;;10387150;22;20494;-75
2022/01/31 21:33:40;;;;;;;5.60;1.97;;;;;;;;;;10358427;28;20534;-75
2022/01/31 21:38:46;;;;;;;4.27;2.10;;;;;;;;;;10320439;28;20043;-74
2022/01/31 21:43:51;;;;;;;2.63;1.10;;;;;;;;;;10321584;28;20166;-73
2022/01/31 21:48:54;;;;;;;4.43;1.90;;;;;;;;;;10317343;28;20046;-74
2022/01/31 21:53:57;;;;;;;2.07;1.47;;;;;;;;;;10317136;28;20415;-75
2022/01/31 21:59:01;;;;;;;3.70;1.73;;;;;;;;;;10319829;28;20043;-76
2022/01/31 22:04:16;;;;;;;;;;;;;;;;;;10309746;28;20062;-75
2022/01/31 22:09:33;;;;;;;1.83;1.37;;;;;;;;;;10320021;28;20321;-74
2022/01/31 22:14:37;;;;;;;2.50;1.60;;;;;;;;;;10323747;28;20050;-73
2022/01/31 22:19:41;;;;;;;1.30;0.70;;;;;;;;;;10320351;28;20034;-74
2022/01/31 22:24:44;;;;;;;3.83;1.30;;;;;;;;;;10320090;28;20104;-75
2022/01/31 22:29:48;;;;;;;5.07;1.02;;;;;;;;;;10319609;28;20049;-74
2022/01/31 22:34:51;;;;;;;2.05;1.30;;;;;;;;;;10323542;28;20392;-75
2022/01/31 22:39:54;;;;;;;2.63;1.47;;;;;;;;;;10320420;28;20038;-74
2022/01/31 22:44:59;;;;;;;1.48;1.02;;;;;;;;;;10318317;28;20038;-75
2022/01/31 22:50:02;;;;;;;;;;;;;;;;;;10319689;28;20056;-73
2022/01/31 22:55:05;;;;;;;1.47;0.97;;;;;;;;;;10320156;28;20012;-74
2022/01/31 23:00:11;;;;;;;1.20;0.77;;;;;;;;;;10322098;28;20049;-77
2022/01/31 23:05:14;;;;;;;1.53;1.00;;;;;;;;;;10319675;28;20494;-75
2022/01/31 23:10:17;;;;;;;2.77;1.43;;;;;;;;;;10317952;28;20565;-73
2022/01/31 23:15:30;;;;;;;1.73;1.00;;;;;;;;;;10311873;28;20105;-73
2022/01/31 23:20:52;;;;;;;0.60;0.57;;;;;;;;;;10317959;28;20050;-73
2022/01/31 23:42:24;;;;;;;2.07;1.20;;;;;;;;;;10319787;28;20049;-74
2022/01/31 23:53:05;;;;;;;1.23;0.87;;;;;;;;;;10294898;28;20066;-74
